Time;durP1;ratioP1;P1;durP2;ratioP2;P2;SDS_P1;SDS_P2;PMS_P1;PMS_P2;Temp;Humidity;BMP_temperature;BMP_pressure;BME280_temperature;BME280_humidity;BME280_pressure;Samples;Min_cycle;Max_cycle;Signal;HPM_P1;HPM_P2
2022/01/26 00:06:39;;;;;;;119.88;41.25;;;;;;;;;;4976321;28;20053;-86
2022/01/26 00:09:06;;;;;;;117.15;40.13;;;;;;;;;;4987132;28;20043;-87
2022/01/26 00:11:33;;;;;;;97.72;33.63;;;;;;;;;;4984013;28;20076;-87
2022/01/26 00:14:01;;;;;;;122.65;41.97;;;;;;;;;;4985081;28;20120;-87
2022/01/26 00:16:36;;;;;;;123.90;42.03;;;;;;;;;;4995133;28;20034;-88
2022/01/26 00:19:03;;;;;;;110.63;37.63;;;;;;;;;;4967944;28;20959;-87
2022/01/26 00:26:34;;;;;;;106.30;35.72;;;;;;;;;;4985455;28;20054;-87
2022/01/26 00:29:15;;;;;;;112.60;39.45;;;;;;;;;;4967407;28;20064;-87
2022/01/26 00:40:16;;;;;;;115.38;37.20;;;;;;;;;;4998785;28;20088;-87
2022/01/26 00:42:45;;;;;;;114.65;40.78;;;;;;;;;;4982162;28;20040;-89
2022/01/26 00:45:11;;;;;;;102.53;33.67;;;;;;;;;;4987380;28;20053;-87
2022/01/26 00:47:37;;;;;;;116.35;39.22;;;;;;;;;;4973472;28;20164;-88
2022/01/26 00:50:07;;;;;;;93.53;33.78;;;;;;;;;;4986452;28;20459;-87
2022/01/26 00:52:42;;;;;;;109.15;37.45;;;;;;;;;;5007985;28;20046;-88
2022/01/26 00:55:09;;;;;;;114.57;40.83;;;;;;;;;;4984571;28;20735;-87
2022/01/26 00:57:35;;;;;;;106.22;38.40;;;;;;;;;;4989822;28;20045;-88
2022/01/26 01:00:03;;;;;;;103.28;34.75;;;;;;;;;;4987504;28;20081;-87
2022/01/26 01:02:31;;;;;;;103.25;37.30;;;;;;;;;;4986240;28;20466;-87
2022/01/26 01:05:00;;;;;;;113.88;40.28;;;;;;;;;;4989854;28;20046;-88
2022/01/26 01:07:31;;;;;;;115.15;38.25;;;;;;;;;;4968346;28;20644;-87
2022/01/26 01:09:59;;;;;;;113.57;37.55;;;;;;;;;;4982287;28;20049;-87
2022/01/26 01:12:25;;;;;;;102.32;36.60;;;;;;;;;;4970763;28;20045;-88
2022/01/26 01:14:51;;;;;;;106.57;35.35;;;;;;;;;;4989412;28;20050;-87
2022/01/26 01:17:24;;;;;;;118.63;38.90;;;;;;;;;;4985407;28;20042;-88
2022/01/26 01:28:13;;;;;;;114.47;39.45;;;;;;;;;;4988424;28;20049;-88
2022/01/26 01:30:43;;;;;;;98.75;34.08;;;;;;;;;;5002410;28;20493;-86
2022/01/26 01:33:15;;;;;;;99.05;34.00;;;;;;;;;;4985152;28;20045;-88
2022/01/26 01:35:43;;;;;;;109.47;35.78;;;;;;;;;;4988730;28;20054;-87
2022/01/26 01:38:13;;;;;;;107.22;35.08;;;;;;;;;;4985068;28;20046;-88
2022/01/26 01:40:41;;;;;;;108.43;34.97;;;;;;;;;;5005923;28;20107;-87
2022/01/26 01:43:08;;;;;;;103.07;38.45;;;;;;;;;;4985665;28;20048;-88
2022/01/26 01:45:35;;;;;;;106.35;36.03;;;;;;;;;;4989378;28;20536;-87
2022/01/26 01:48:01;;;;;;;108.80;38.08;;;;;;;;;;4968851;28;20036;-87
2022/01/26 01:50:27;;;;;;;116.45;40.65;;;;;;;;;;4988073;28;20593;-87
2022/01/26 01:53:01;;;;;;;111.93;40.53;;;;;;;;;;4971691;28;20088;-87
2022/01/26 01:55:29;;;;;;;105.38;36.63;;;;;;;;;;4971920;28;20042;-86
2022/01/26 01:57:56;;;;;;;113.05;41.15;;;;;;;;;;5007267;28;20053;-87
2022/01/26 02:00:23;;;;;;;99.80;34.47;;;;;;;;;;5003759;28;20045;-88
2022/01/26 02:02:49;;;;;;;105.65;37.60;;;;;;;;;;4988523;28;20050;-87
2022/01/26 02:05:15;;;;;;;108.70;36.85;;;;;;;;;;4981170;28;20049;-87
2022/01/26 02:07:41;;;;;;;110.28;37.15;;;;;;;;;;4987892;28;20061;-88
2022/01/26 02:10:09;;;;;;;117.30;38.30;;;;;;;;;;5004963;28;20038;-87
2022/01/26 02:12:38;;;;;;;111.35;40.28;;;;;;;;;;4968414;28;20042;-87
2022/01/26 02:15:11;;;;;;;116.70;37.78;;;;;;;;;;4968940;28;20066;-87
2022/01/26 02:54:13;;;;;;;98.45;36.58;;;;;;;;;;4973618;28;20129;-88
2022/01/26 02:57:32;;;;;;;105.13;37.55;;;;;;;;;;4972678;28;20042;-88
2022/01/26 03:07:04;;;;;;;102.63;36.63;;;;;;;;;;4982895;28;20057;-87
2022/01/26 03:09:36;;;;;;;93.15;35.03;;;;;;;;;;4974287;28;20376;-87
2022/01/26 03:12:04;;;;;;;111.57;40.30;;;;;;;;;;4978400;28;20057;-87
2022/01/26 03:17:08;;;;;;;100.13;35.60;;;;;;;;;;5005178;28;20093;-87
2022/01/26 03:19:39;;;;;;;106.65;37.38;;;;;;;;;;4984859;28;20394;-87
2022/01/26 03:30:06;;;;;;;115.72;41.25;;;;;;;;;;4985822;28;20061;-88
2022/01/26 03:35:17;;;;;;;124.32;44.10;;;;;;;;;;4987716;28;20117;-88
2022/01/26 03:37:54;;;;;;;123.45;42.17;;;;;;;;;;5001904;28;20437;-87
2022/01/26 03:40:29;;;;;;;115.72;41.47;;;;;;;;;;4986672;28;20050;-86
2022/01/26 03:42:55;;;;;;;120.72;41.55;;;;;;;;;;4985960;28;20113;-86
2022/01/26 03:45:21;;;;;;;113.03;41.15;;;;;;;;;;4971998;28;20042;-87
2022/01/26 03:47:47;;;;;;;111.85;38.90;;;;;;;;;;4986924;28;20577;-86
2022/01/26 03:50:13;;;;;;;108.85;41.53;;;;;;;;;;4984977;28;20064;-88
2022/01/26 03:52:39;;;;;;;118.72;41.65;;;;;;;;;;4985389;28;20034;-86
2022/01/26 03:55:05;;;;;;;111.93;38.00;;;;;;;;;;4979872;28;20050;-87
2022/01/26 03:57:31;;;;;;;113.70;42.00;;;;;;;;;;4986376;28;20112;-87
2022/01/26 03:59:57;;;;;;;101.93;36.22;;;;;;;;;;4985582;28;20607;-87
2022/01/26 04:02:23;;;;;;;111.47;40.35;;;;;;;;;;4988663;28;20580;-86
2022/01/26 04:04:56;;;;;;;120.25;42.08;;;;;;;;;;4986558;28;20038;-86
2022/01/26 04:07:22;;;;;;;107.70;40.53;;;;;;;;;;5002487;28;20041;-88
2022/01/26 04:09:48;;;;;;;119.95;43.30;;;;;;;;;;4985463;28;20061;-88
2022/01/26 04:12:14;;;;;;;110.80;39.33;;;;;;;;;;4969143;28;20058;-87
2022/01/26 04:14:44;;;;;;;100.28;37.28;;;;;;;;;;5004540;28;20239;-87
2022/01/26 04:17:10;;;;;;;111.45;39.85;;;;;;;;;;4986359;28;20048;-87
2022/01/26 04:19:39;;;;;;;129.60;43.65;;;;;;;;;;5007920;28;21901;-88
2022/01/26 04:22:34;;;;;;;111.80;38.50;;;;;;;;;;5006789;28;20046;-87
2022/01/26 04:24:53;;;;;;;102.97;39.80;;;;;;;;;;4987921;28;20046;-87
2022/01/26 04:27:30;;;;;;;123.75;38.05;;;;;;;;;;4974943;28;20038;-87
2022/01/26 04:29:56;;;;;;;105.85;34.40;;;;;;;;;;4974775;28;20037;-87
2022/01/26 04:32:23;;;;;;;118.00;40.08;;;;;;;;;;4976869;28;20088;-88
2022/01/26 04:34:52;;;;;;;92.88;31.30;;;;;;;;;;5006324;28;20125;-87
2022/01/26 04:39:51;;;;;;;118.82;41.00;;;;;;;;;;4988690;28;20049;-86
2022/01/26 04:43:25;;;;;;;105.15;38.00;;;;;;;;;;4972567;28;20057;-86
2022/01/26 04:45:16;;;;;;;112.50;38.70;;;;;;;;;;4995389;28;20089;-87
2022/01/26 04:47:42;;;;;;;106.38;36.95;;;;;;;;;;4987636;28;20042;-86
2022/01/26 04:50:09;;;;;;;108.72;36.15;;;;;;;;;;4973573;28;20101;-87
2022/01/26 04:52:35;;;;;;;97.72;33.42;;;;;;;;;;4988260;28;20041;-87
2022/01/26 04:55:01;;;;;;;97.57;35.17;;;;;;;;;;4989676;28;20128;-86
2022/01/26 04:57:27;;;;;;;98.30;34.35;;;;;;;;;;4989590;28;20109;-87
2022/01/26 04:59:53;;;;;;;93.72;33.33;;;;;;;;;;4988611;28;21719;-87
2022/01/26 05:02:19;;;;;;;89.70;32.28;;;;;;;;;;4990198;28;20537;-87
2022/01/26 05:04:46;;;;;;;97.28;32.78;;;;;;;;;;4989237;28;20061;-87
2022/01/26 05:07:12;;;;;;;97.40;34.17;;;;;;;;;;4989760;28;20050;-86
2022/01/26 05:09:39;;;;;;;86.80;32.75;;;;;;;;;;4986779;28;20038;-87
2022/01/26 05:12:06;;;;;;;98.78;36.95;;;;;;;;;;4988576;28;20050;-86
2022/01/26 05:14:32;;;;;;;91.72;34.35;;;;;;;;;;5004669;28;20457;-88
2022/01/26 05:16:58;;;;;;;92.38;35.13;;;;;;;;;;5003361;28;20038;-87
2022/01/26 05:19:24;;;;;;;87.72;34.05;;;;;;;;;;4983955;28;20042;-88
2022/01/26 05:21:50;;;;;;;95.68;34.22;;;;;;;;;;4986986;28;20042;-87
2022/01/26 05:24:16;;;;;;;86.32;33.70;;;;;;;;;;5006006;28;20045;-87
2022/01/26 05:26:42;;;;;;;60.70;23.75;;;;;;;;;;4986410;28;20057;-86
2022/01/26 05:29:08;;;;;;;85.45;34.10;;;;;;;;;;4971874;28;20050;-87
2022/01/26 05:31:34;;;;;;;78.70;28.85;;;;;;;;;;4970222;28;20088;-87
2022/01/26 05:34:00;;;;;;;91.05;34.17;;;;;;;;;;4973061;28;20038;-86
2022/01/26 05:36:27;;;;;;;89.22;33.00;;;;;;;;;;4970731;28;20391;-86
2022/01/26 05:38:53;;;;;;;84.22;32.35;;;;;;;;;;4988962;28;20045;-87
2022/01/26 05:41:19;;;;;;;92.30;34.35;;;;;;;;;;5003869;28;20042;-88
2022/01/26 05:43:45;;;;;;;102.43;35.25;;;;;;;;;;4971105;28;20481;-87
2022/01/26 05:46:18;;;;;;;90.50;31.90;;;;;;;;;;5002543;28;20038;-87
2022/01/26 05:48:45;;;;;;;82.00;31.83;;;;;;;;;;5018504;28;20044;-89
2022/01/26 05:51:13;;;;;;;82.40;29.17;;;;;;;;;;4986778;28;20046;-86
2022/01/26 05:53:40;;;;;;;92.15;32.30;;;;;;;;;;4985619;28;20038;-87
2022/01/26 05:56:06;;;;;;;89.65;32.50;;;;;;;;;;4988557;28;20053;-83
2022/01/26 05:58:33;;;;;;;91.35;33.35;;;;;;;;;;4985105;28;20129;-86
2022/01/26 06:01:00;;;;;;;81.85;28.63;;;;;;;;;;4987597;28;20065;-82
2022/01/26 06:03:27;;;;;;;82.78;30.52;;;;;;;;;;5004922;28;20096;-84
2022/01/26 06:05:56;;;;;;;86.65;30.33;;;;;;;;;;5004020;28;20073;-83
2022/01/26 06:08:23;;;;;;;80.75;28.25;;;;;;;;;;5004240;28;20516;-85
2022/01/26 06:10:50;;;;;;;88.47;30.95;;;;;;;;;;5003498;28;20505;-85
2022/01/26 06:13:16;;;;;;;84.97;29.90;;;;;;;;;;4997111;28;20058;-85
2022/01/26 06:15:43;;;;;;;66.75;25.48;;;;;;;;;;5004257;28;20054;-83
2022/01/26 06:18:10;;;;;;;84.55;28.95;;;;;;;;;;5003443;28;20037;-83
2022/01/26 06:20:36;;;;;;;80.57;27.77;;;;;;;;;;4968436;28;20045;-84
2022/01/26 06:23:03;;;;;;;70.50;27.30;;;;;;;;;;5004412;28;20577;-84
2022/01/26 06:25:29;;;;;;;81.22;28.60;;;;;;;;;;5003868;28;20065;-85
2022/01/26 06:27:58;;;;;;;87.90;33.08;;;;;;;;;;4986327;28;20379;-83
2022/01/26 06:30:25;;;;;;;72.90;27.63;;;;;;;;;;4987589;28;20046;-85
2022/01/26 06:32:51;;;;;;;85.60;31.88;;;;;;;;;;5003353;28;20525;-86
2022/01/26 06:35:17;;;;;;;80.57;31.55;;;;;;;;;;4986386;28;20045;-83
2022/01/26 06:37:44;;;;;;;86.55;30.42;;;;;;;;;;5002119;28;20041;-86
2022/01/26 06:40:10;;;;;;;77.18;26.65;;;;;;;;;;4985234;28;20049;-85
2022/01/26 06:42:50;;;;;;;91.80;33.65;;;;;;;;;;5002735;28;20193;-85
2022/01/26 06:45:19;;;;;;;84.95;32.10;;;;;;;;;;5002248;28;20044;-85
2022/01/26 06:48:00;;;;;;;91.95;34.80;;;;;;;;;;4986436;28;20050;-82
2022/01/26 06:50:26;;;;;;;82.70;29.92;;;;;;;;;;4986063;28;20045;-85
2022/01/26 06:52:52;;;;;;;90.13;31.45;;;;;;;;;;5003286;28;20387;-84
2022/01/26 06:55:19;;;;;;;83.97;33.38;;;;;;;;;;4980797;28;20038;-86
2022/01/26 06:57:45;;;;;;;85.25;32.80;;;;;;;;;;5002962;28;20379;-87
2022/01/26 07:00:12;;;;;;;83.25;31.08;;;;;;;;;;4985649;28;20077;-88
2022/01/26 07:02:39;;;;;;;82.60;31.70;;;;;;;;;;4986796;28;20045;-87
2022/01/26 07:05:05;;;;;;;90.40;34.50;;;;;;;;;;4986724;28;20537;-88
2022/01/26 07:07:32;;;;;;;77.53;28.45;;;;;;;;;;4985319;28;20054;-85
2022/01/26 07:09:58;;;;;;;97.60;35.78;;;;;;;;;;5001837;28;20057;-89
2022/01/26 07:12:25;;;;;;;103.60;37.72;;;;;;;;;;5001885;28;20049;-86
2022/01/26 07:23:06;;;;;;;90.32;34.78;;;;;;;;;;4986642;28;20112;-87
2022/01/26 07:25:32;;;;;;;86.70;34.50;;;;;;;;;;5000752;28;20061;-83
2022/01/26 07:28:02;;;;;;;99.10;37.65;;;;;;;;;;4983907;28;20042;-86
2022/01/26 07:30:28;;;;;;;86.45;32.97;;;;;;;;;;5016076;28;20082;-83
2022/01/26 07:32:54;;;;;;;71.30;28.55;;;;;;;;;;4983366;28;20100;-83
2022/01/26 07:35:21;;;;;;;103.95;37.88;;;;;;;;;;4986755;28;20143;-87
2022/01/26 07:37:48;;;;;;;97.40;38.03;;;;;;;;;;4984150;28;21074;-86
2022/01/26 07:40:15;;;;;;;104.18;37.30;;;;;;;;;;5002985;28;20597;-86
2022/01/26 07:42:44;;;;;;;98.35;37.20;;;;;;;;;;4993644;28;20121;-85
2022/01/26 07:45:11;;;;;;;94.75;37.88;;;;;;;;;;4970686;28;20134;-84
2022/01/26 07:47:38;;;;;;;91.43;31.85;;;;;;;;;;4981425;28;20038;-86
2022/01/26 07:50:08;;;;;;;87.93;36.70;;;;;;;;;;4967669;28;20042;-86
2022/01/26 07:52:38;;;;;;;96.10;36.15;;;;;;;;;;5006675;28;20042;-87
2022/01/26 07:57:54;;;;;;;98.53;38.30;;;;;;;;;;5013981;28;20049;-85
2022/01/26 08:00:20;;;;;;;90.53;36.75;;;;;;;;;;5013424;28;20046;-85
2022/01/26 08:02:47;;;;;;;92.45;38.00;;;;;;;;;;4997140;28;20133;-86
2022/01/26 08:05:14;;;;;;;93.80;34.72;;;;;;;;;;4995754;28;21224;-85
2022/01/26 08:07:40;;;;;;;98.68;36.38;;;;;;;;;;5014685;28;20108;-85
2022/01/26 08:10:07;;;;;;;94.82;38.00;;;;;;;;;;5013282;28;20057;-86
2022/01/26 08:12:34;;;;;;;95.53;38.40;;;;;;;;;;4976207;28;20050;-86
2022/01/26 08:15:00;;;;;;;91.63;36.85;;;;;;;;;;4976683;28;20054;-85
2022/01/26 08:17:26;;;;;;;91.38;36.70;;;;;;;;;;4990510;28;20422;-86
2022/01/26 08:19:55;;;;;;;93.93;37.33;;;;;;;;;;4993625;28;20602;-86
2022/01/26 08:22:21;;;;;;;112.72;40.08;;;;;;;;;;4976664;28;20049;-84
2022/01/26 08:24:49;;;;;;;89.18;36.10;;;;;;;;;;4961039;28;20058;-85
2022/01/26 08:27:17;;;;;;;90.63;36.47;;;;;;;;;;4992354;28;20050;-85
2022/01/26 08:29:50;;;;;;;57.72;22.55;;;;;;;;;;4993033;28;20046;-86
2022/01/26 08:32:17;;;;;;;97.15;38.28;;;;;;;;;;4992762;28;20510;-83
2022/01/26 08:34:43;;;;;;;83.90;32.75;;;;;;;;;;4993113;28;20047;-84
2022/01/26 08:37:09;;;;;;;95.57;39.65;;;;;;;;;;4992577;28;20137;-84
2022/01/26 08:39:36;;;;;;;92.45;38.53;;;;;;;;;;4977098;28;20038;-84
2022/01/26 08:42:03;;;;;;;103.60;39.72;;;;;;;;;;4993820;28;20042;-84
2022/01/26 08:44:29;;;;;;;90.78;33.22;;;;;;;;;;4992278;28;20050;-84
2022/01/26 08:46:56;;;;;;;100.18;38.28;;;;;;;;;;4976613;28;20113;-83
2022/01/26 08:49:25;;;;;;;103.25;41.67;;;;;;;;;;4994823;28;20752;-84
2022/01/26 08:51:51;;;;;;;95.70;36.58;;;;;;;;;;4999549;28;20034;-83
2022/01/26 08:54:22;;;;;;;98.68;39.25;;;;;;;;;;5000980;28;20454;-86
2022/01/26 08:56:49;;;;;;;103.88;40.28;;;;;;;;;;4993833;28;20065;-85
2022/01/26 08:59:15;;;;;;;95.45;35.85;;;;;;;;;;4992601;28;20046;-84
2022/01/26 09:01:41;;;;;;;91.18;35.70;;;;;;;;;;4992442;28;20050;-83
2022/01/26 09:04:07;;;;;;;100.88;37.80;;;;;;;;;;4989042;28;20049;-83
2022/01/26 09:06:39;;;;;;;104.15;41.70;;;;;;;;;;4972927;28;20062;-84
2022/01/26 09:09:07;;;;;;;92.70;37.22;;;;;;;;;;4988542;28;20167;-85
2022/01/26 09:11:35;;;;;;;98.07;38.92;;;;;;;;;;4972927;28;20054;-84
2022/01/26 09:14:07;;;;;;;105.50;40.92;;;;;;;;;;4970356;28;20521;-85
2022/01/26 09:16:35;;;;;;;89.03;34.78;;;;;;;;;;4977001;28;20062;-85
2022/01/26 09:19:08;;;;;;;98.75;39.28;;;;;;;;;;4956128;28;20042;-85
2022/01/26 09:21:35;;;;;;;98.80;39.15;;;;;;;;;;4990063;28;20046;-85
2022/01/26 09:24:01;;;;;;;106.70;42.95;;;;;;;;;;4989999;28;20332;-83
2022/01/26 09:26:27;;;;;;;107.35;43.95;;;;;;;;;;4987945;28;20494;-84
2022/01/26 09:28:53;;;;;;;107.38;42.97;;;;;;;;;;4987031;28;20074;-86
2022/01/26 09:31:19;;;;;;;100.97;43.63;;;;;;;;;;4972142;28;20050;-86
2022/01/26 09:33:45;;;;;;;109.00;42.92;;;;;;;;;;4990733;28;20046;-84
2022/01/26 09:36:11;;;;;;;91.03;38.28;;;;;;;;;;4988910;28;20038;-85
2022/01/26 09:38:39;;;;;;;105.10;41.58;;;;;;;;;;4977689;28;20442;-86
2022/01/26 09:41:05;;;;;;;84.60;36.40;;;;;;;;;;4979222;28;20054;-86
2022/01/26 09:43:31;;;;;;;104.80;39.03;;;;;;;;;;4988882;28;20038;-86
2022/01/26 09:45:58;;;;;;;96.55;40.05;;;;;;;;;;4989152;28;20113;-85
2022/01/26 09:48:24;;;;;;;96.07;35.92;;;;;;;;;;4987119;28;20042;-82
2022/01/26 09:50:54;;;;;;;104.22;41.88;;;;;;;;;;4988252;28;20210;-85
2022/01/26 09:53:26;;;;;;;94.38;38.65;;;;;;;;;;4987371;28;20089;-82
2022/01/26 09:55:53;;;;;;;107.72;42.45;;;;;;;;;;4987821;28;20051;-82
2022/01/26 09:58:20;;;;;;;104.03;43.38;;;;;;;;;;4985387;28;20723;-82
2022/01/26 10:00:56;;;;;;;112.07;47.45;;;;;;;;;;4988514;28;20132;-84
2022/01/26 10:03:25;;;;;;;98.65;42.55;;;;;;;;;;4989522;28;20396;-82
2022/01/26 10:05:51;;;;;;;104.72;44.17;;;;;;;;;;4986661;28;20038;-81
2022/01/26 10:18:56;;;;;;;103.80;43.03;;;;;;;;;;4988478;28;20430;-85
2022/01/26 10:21:23;;;;;;;101.18;41.97;;;;;;;;;;4987150;28;20117;-83
2022/01/26 10:23:52;;;;;;;97.72;41.67;;;;;;;;;;4987471;28;20047;-85
2022/01/26 10:26:19;;;;;;;78.38;34.17;;;;;;;;;;4987389;28;20149;-82
2022/01/26 10:28:54;;;;;;;108.55;41.00;;;;;;;;;;4969380;28;20065;-82
2022/01/26 10:31:21;;;;;;;103.53;43.55;;;;;;;;;;4987817;28;20449;-82
2022/01/26 10:34:02;;;;;;;91.20;40.85;;;;;;;;;;4988620;28;20081;-83
2022/01/26 10:36:39;;;;;;;82.65;34.80;;;;;;;;;;4986579;28;20141;-82
2022/01/26 10:39:07;;;;;;;100.00;41.95;;;;;;;;;;4972870;28;20399;-82
2022/01/26 10:41:34;;;;;;;87.25;35.67;;;;;;;;;;4975649;28;20069;-80
2022/01/26 10:44:02;;;;;;;97.63;40.33;;;;;;;;;;4987880;28;20041;-81
2022/01/26 10:46:30;;;;;;;94.95;39.58;;;;;;;;;;4996414;28;20069;-84
2022/01/26 10:49:44;;;;;;;100.28;39.33;;;;;;;;;;4997311;28;20069;-84
2022/01/26 10:52:19;;;;;;;97.07;40.30;;;;;;;;;;4982129;28;20053;-83
2022/01/26 10:54:45;;;;;;;89.15;39.90;;;;;;;;;;4980920;28;20057;-86
2022/01/26 10:57:12;;;;;;;92.93;40.72;;;;;;;;;;4987056;28;20054;-85
2022/01/26 10:59:42;;;;;;;94.28;40.65;;;;;;;;;;5003884;28;20042;-86
2022/01/26 11:02:09;;;;;;;105.40;43.45;;;;;;;;;;4987889;28;20072;-86
2022/01/26 11:04:37;;;;;;;80.03;32.50;;;;;;;;;;4988177;28;20455;-85
2022/01/26 11:07:04;;;;;;;103.60;40.72;;;;;;;;;;4987356;28;20501;-86
2022/01/26 11:09:32;;;;;;;93.63;35.65;;;;;;;;;;4989975;28;20057;-85
2022/01/26 11:12:01;;;;;;;104.47;40.03;;;;;;;;;;4963684;28;20209;-87
2022/01/26 11:14:37;;;;;;;92.88;37.30;;;;;;;;;;5001397;28;20054;-83
2022/01/26 11:17:03;;;;;;;102.55;40.47;;;;;;;;;;5001531;28;20035;-83
2022/01/26 11:19:39;;;;;;;102.82;41.63;;;;;;;;;;4990356;28;20050;-83
2022/01/26 11:22:09;;;;;;;97.43;39.22;;;;;;;;;;4988616;28;20115;-87
2022/01/26 11:24:42;;;;;;;92.45;38.25;;;;;;;;;;4968720;28;20053;-86
2022/01/26 11:27:08;;;;;;;98.32;35.72;;;;;;;;;;4986623;28;20046;-86
2022/01/26 11:29:37;;;;;;;104.47;37.40;;;;;;;;;;4985477;28;20057;-85
2022/01/26 11:32:13;;;;;;;94.90;41.35;;;;;;;;;;4971248;28;20077;-84
2022/01/26 11:34:40;;;;;;;101.95;39.40;;;;;;;;;;4987796;28;20038;-86
2022/01/26 11:37:12;;;;;;;89.75;37.20;;;;;;;;;;4995388;28;20070;-87
2022/01/26 11:45:16;;;;;;;86.75;35.55;;;;;;;;;;4982136;28;20046;-88
2022/01/26 11:47:46;;;;;;;78.32;31.95;;;;;;;;;;4986528;28;20038;-84
2022/01/26 11:50:19;;;;;;;67.40;26.85;;;;;;;;;;4973776;28;20047;-85
2022/01/26 11:52:46;;;;;;;80.40;33.33;;;;;;;;;;4987606;28;20068;-87
2022/01/26 11:55:34;;;;;;;76.97;32.10;;;;;;;;;;4988031;28;20042;-85
2022/01/26 11:58:16;;;;;;;81.65;34.22;;;;;;;;;;4972551;28;20042;-87
2022/01/26 12:00:49;;;;;;;86.75;35.00;;;;;;;;;;4987897;28;20047;-87
2022/01/26 12:03:30;;;;;;;75.13;30.40;;;;;;;;;;4978969;28;20553;-86
2022/01/26 12:05:58;;;;;;;73.70;31.77;;;;;;;;;;4959449;28;20092;-85
2022/01/26 12:08:35;;;;;;;81.65;31.35;;;;;;;;;;4994398;28;20058;-86
2022/01/26 12:11:01;;;;;;;77.97;32.80;;;;;;;;;;4982053;28;20066;-84
2022/01/26 12:13:29;;;;;;;85.07;32.58;;;;;;;;;;5014369;28;20129;-87
2022/01/26 12:16:08;;;;;;;87.13;32.95;;;;;;;;;;4989804;28;20054;-89
2022/01/26 12:18:44;;;;;;;82.07;32.88;;;;;;;;;;4974333;28;20498;-87
2022/01/26 12:35:19;;;;;;;53.45;21.45;;;;;;;;;;4966209;28;20514;-87
2022/01/26 12:37:58;;;;;;;80.68;31.58;;;;;;;;;;4973428;28;20541;-87
2022/01/26 12:43:10;;;;;;;75.28;29.00;;;;;;;;;;4989919;28;20073;-87
2022/01/26 12:45:36;;;;;;;88.03;32.55;;;;;;;;;;4991257;28;20049;-86
2022/01/26 12:48:09;;;;;;;76.97;31.58;;;;;;;;;;4990577;28;20370;-84
2022/01/26 12:50:35;;;;;;;89.90;34.85;;;;;;;;;;4989547;28;20072;-86
2022/01/26 12:53:04;;;;;;;81.60;32.25;;;;;;;;;;4989379;28;20054;-87
2022/01/26 12:55:32;;;;;;;71.15;28.95;;;;;;;;;;4992193;28;20041;-85
2022/01/26 12:58:01;;;;;;;86.05;33.30;;;;;;;;;;4989097;28;20054;-86
2022/01/26 13:00:38;;;;;;;80.38;34.78;;;;;;;;;;4989107;28;20050;-86
2022/01/26 13:03:11;;;;;;;87.38;34.30;;;;;;;;;;4981636;28;20054;-86
2022/01/26 13:05:37;;;;;;;87.15;34.28;;;;;;;;;;4990577;28;20596;-88
2022/01/26 13:08:04;;;;;;;84.82;31.90;;;;;;;;;;4992704;28;20042;-87
2022/01/26 13:10:31;;;;;;;81.22;30.85;;;;;;;;;;5010112;28;20046;-85
2022/01/26 13:13:24;;;;;;;92.35;32.58;;;;;;;;;;4989617;28;20058;-88
2022/01/26 13:16:09;;;;;;;87.53;33.20;;;;;;;;;;4973247;28;20058;-86
2022/01/26 13:21:30;;;;;;;91.53;34.85;;;;;;;;;;4984397;28;20049;-88
2022/01/26 13:24:17;;;;;;;96.85;34.25;;;;;;;;;;4992021;28;20064;-87
2022/01/26 13:26:59;;;;;;;87.30;33.83;;;;;;;;;;4977588;28;20053;-88
2022/01/26 13:35:06;;;;;;;93.72;35.95;;;;;;;;;;5010091;28;20502;-88
2022/01/26 13:48:22;;;;;;;79.30;32.13;;;;;;;;;;5020119;28;20461;-84
2022/01/26 13:53:32;;;;;;;74.30;34.22;;;;;;;;;;5008922;28;20049;-87
2022/01/26 13:56:14;;;;;;;65.85;27.58;;;;;;;;;;5009044;28;20104;-87
2022/01/26 13:59:12;;;;;;;50.95;21.75;;;;;;;;;;4970606;28;20035;-87
2022/01/26 14:01:27;;;;;;;71.75;31.33;;;;;;;;;;5003941;28;20038;-87
2022/01/26 14:03:58;;;;;;;70.35;28.35;;;;;;;;;;5007477;28;20453;-87
2022/01/26 14:06:24;;;;;;;78.72;32.00;;;;;;;;;;4988291;28;20052;-86
2022/01/26 14:08:50;;;;;;;82.32;32.70;;;;;;;;;;4989641;28;20054;-86
2022/01/26 14:11:16;;;;;;;72.88;31.90;;;;;;;;;;5007524;28;20038;-88
2022/01/26 14:13:44;;;;;;;79.65;30.40;;;;;;;;;;4971816;28;20060;-87
2022/01/26 14:16:19;;;;;;;76.93;32.97;;;;;;;;;;5006847;28;20437;-88
2022/01/26 14:21:40;;;;;;;70.70;29.88;;;;;;;;;;5005952;28;20045;-84
2022/01/26 14:26:42;;;;;;;59.90;23.48;;;;;;;;;;5007240;28;20046;-84
2022/01/26 14:29:17;;;;;;;74.38;32.00;;;;;;;;;;5006192;28;20567;-88
2022/01/26 14:35:02;;;;;;;69.95;26.75;;;;;;;;;;4983347;28;20046;-85
2022/01/26 14:50:55;;;;;;;75.55;32.00;;;;;;;;;;4979144;28;20049;-85
2022/01/26 15:35:03;;;;;;;42.03;17.63;;;;;;;;;;4997696;28;20054;-81
2022/01/26 18:17:00;;;;;;;53.35;25.17;;;;;;;;;;5001960;28;20100;-83
2022/01/26 18:33:06;;;;;;;50.33;24.58;;;;;;;;;;5004397;28;20052;-83
2022/01/26 18:51:59;;;;;;;48.42;22.95;;;;;;;;;;4950568;28;20099;-84
2022/01/26 18:54:30;;;;;;;49.08;22.95;;;;;;;;;;4968997;28;20034;-83
2022/01/26 18:56:57;;;;;;;50.40;23.75;;;;;;;;;;4995880;28;20076;-83
2022/01/26 18:59:24;;;;;;;46.22;21.75;;;;;;;;;;5007296;28;20102;-85
2022/01/26 19:01:53;;;;;;;45.60;22.88;;;;;;;;;;4983969;28;20060;-82
2022/01/26 19:04:26;;;;;;;44.63;19.65;;;;;;;;;;4996334;28;20050;-82
2022/01/26 19:06:58;;;;;;;44.65;20.50;;;;;;;;;;4989047;28;20050;-81
2022/01/26 19:09:27;;;;;;;41.53;19.45;;;;;;;;;;4986172;28;20046;-81
2022/01/26 19:11:54;;;;;;;42.25;20.27;;;;;;;;;;4985576;28;20038;-84
2022/01/26 19:14:27;;;;;;;46.20;21.25;;;;;;;;;;4986768;28;20061;-82
2022/01/26 19:17:02;;;;;;;48.67;23.63;;;;;;;;;;4983843;28;20061;-85
2022/01/26 19:24:58;;;;;;;47.05;23.20;;;;;;;;;;4980923;28;20104;-79
2022/01/26 19:51:24;;;;;;;46.58;21.38;;;;;;;;;;4983919;28;20494;-83
2022/01/26 19:53:51;;;;;;;45.72;20.50;;;;;;;;;;4982720;28;20073;-82
2022/01/26 19:56:17;;;;;;;44.17;22.08;;;;;;;;;;4964453;28;20050;-83
2022/01/26 19:58:43;;;;;;;42.00;20.85;;;;;;;;;;4982376;28;20097;-85
2022/01/26 20:01:09;;;;;;;39.05;20.95;;;;;;;;;;4984377;28;20054;-83
2022/01/26 20:03:36;;;;;;;52.45;22.80;;;;;;;;;;4981358;28;20046;-81
2022/01/26 20:06:05;;;;;;;46.88;23.23;;;;;;;;;;4981909;28;20041;-84
2022/01/26 20:11:02;;;;;;;41.72;22.15;;;;;;;;;;4982029;28;20053;-82
2022/01/26 20:13:32;;;;;;;41.42;20.88;;;;;;;;;;4967212;28;20046;-81
2022/01/26 20:16:01;;;;;;;40.08;20.38;;;;;;;;;;4992576;28;20157;-83
2022/01/26 20:18:28;;;;;;;39.65;21.30;;;;;;;;;;4991347;28;20937;-79
2022/01/26 20:20:58;;;;;;;38.83;20.63;;;;;;;;;;4977929;28;20093;-81
2022/01/26 20:23:27;;;;;;;45.92;20.65;;;;;;;;;;4969815;28;20050;-82
2022/01/26 20:25:58;;;;;;;42.35;20.98;;;;;;;;;;4974441;28;20050;-81
2022/01/26 20:28:26;;;;;;;43.83;21.00;;;;;;;;;;4955466;28;20046;-80
2022/01/26 20:30:52;;;;;;;45.35;21.08;;;;;;;;;;4968100;28;20046;-80
2022/01/26 20:33:20;;;;;;;36.08;19.50;;;;;;;;;;4987883;28;20058;-82
2022/01/26 20:35:46;;;;;;;42.55;20.70;;;;;;;;;;4975110;28;20053;-82
2022/01/26 20:38:12;;;;;;;39.70;20.60;;;;;;;;;;4979037;28;20042;-84
2022/01/26 20:40:39;;;;;;;37.80;19.55;;;;;;;;;;4988110;28;20046;-81
2022/01/26 20:43:05;;;;;;;37.63;18.88;;;;;;;;;;4967422;28;20096;-82
2022/01/26 20:45:32;;;;;;;46.97;19.67;;;;;;;;;;4989932;28;20046;-81
2022/01/26 20:48:01;;;;;;;45.08;22.02;;;;;;;;;;5000311;28;20049;-82
2022/01/26 20:50:28;;;;;;;54.17;23.40;;;;;;;;;;4993631;28;20447;-81
2022/01/26 20:52:54;;;;;;;37.17;19.75;;;;;;;;;;4965090;28;20118;-81
2022/01/26 20:55:20;;;;;;;45.72;20.50;;;;;;;;;;4981104;28;20422;-81
2022/01/26 20:57:47;;;;;;;49.03;21.98;;;;;;;;;;4975968;28;20069;-81
2022/01/26 21:00:15;;;;;;;46.60;22.17;;;;;;;;;;4977498;28;20093;-81
2022/01/26 21:02:48;;;;;;;51.05;23.70;;;;;;;;;;4986667;28;20050;-81
2022/01/26 21:05:14;;;;;;;43.35;21.08;;;;;;;;;;4970108;28;20046;-83
2022/01/26 21:07:40;;;;;;;37.88;19.75;;;;;;;;;;4968561;28;20046;-82
2022/01/26 21:10:09;;;;;;;43.10;22.70;;;;;;;;;;4976227;28;20454;-82
2022/01/26 21:12:35;;;;;;;43.47;21.27;;;;;;;;;;4987028;28;20066;-80
2022/01/26 21:15:02;;;;;;;39.92;20.98;;;;;;;;;;5008868;28;20576;-81
2022/01/26 21:17:28;;;;;;;38.28;20.60;;;;;;;;;;5006967;28;20132;-80
2022/01/26 21:19:55;;;;;;;37.90;20.33;;;;;;;;;;4986976;28;20049;-82
2022/01/26 21:22:21;;;;;;;34.63;18.48;;;;;;;;;;4988069;28;20525;-81
2022/01/26 21:24:47;;;;;;;40.15;19.92;;;;;;;;;;5004660;28;20554;-83
2022/01/26 21:27:13;;;;;;;41.67;19.50;;;;;;;;;;5003515;28;20132;-83
2022/01/26 21:29:39;;;;;;;35.40;18.33;;;;;;;;;;4996612;28;20050;-83
2022/01/26 21:32:05;;;;;;;36.22;18.27;;;;;;;;;;4981937;28;20053;-83
2022/01/26 21:34:31;;;;;;;32.83;18.27;;;;;;;;;;4983890;28;20052;-82
2022/01/26 21:36:58;;;;;;;37.38;19.15;;;;;;;;;;4967449;28;20141;-83
2022/01/26 21:39:24;;;;;;;34.70;19.25;;;;;;;;;;4996682;28;20050;-83
2022/01/26 21:41:51;;;;;;;38.40;19.30;;;;;;;;;;4983478;28;20051;-79